sensor_id;sensor_type;location;lat;lon;timestamp;temperature;humidity
18073;DHT22;9161;47.348;9.648;2023-04-24T00:00:54;10.00;99.90
18073;DHT22;9161;47.348;9.648;2023-04-24T00:05:57;9.90;99.90
18073;DHT22;9161;47.348;9.648;2023-04-24T00:11:01;9.80;99.90
18073;DHT22;9161;47.348;9.648;2023-04-24T00:16:04;9.80;99.90
18073;DHT22;9161;47.348;9.648;2023-04-24T00:21:07;9.90;99.90
18073;DHT22;9161;47.348;9.648;2023-04-24T00:26:10;9.90;99.90
18073;DHT22;9161;47.348;9.648;2023-04-24T00:31:12;9.80;99.90
18073;DHT22;9161;47.348;9.648;2023-04-24T00:36:14;9.90;99.90
18073;DHT22;9161;47.348;9.648;2023-04-24T00:41:18;9.90;99.90
18073;DHT22;9161;47.348;9.648;2023-04-24T00:46:21;9.80;99.90
18073;DHT22;9161;47.348;9.648;2023-04-24T00:51:23;9.70;99.90
18073;DHT22;9161;47.348;9.648;2023-04-24T00:56:27;9.60;99.90
18073;DHT22;9161;47.348;9.648;2023-04-24T01:01:30;9.50;99.90
18073;DHT22;9161;47.348;9.648;2023-04-24T01:06:34;9.40;99.90
18073;DHT22;9161;47.348;9.648;2023-04-24T01:11:37;9.40;99.90
18073;DHT22;9161;47.348;9.648;2023-04-24T01:16:40;9.30;99.90
18073;DHT22;9161;47.348;9.648;2023-04-24T01:21:43;9.20;99.90
18073;DHT22;9161;47.348;9.648;2023-04-24T01:26:47;9.10;99.90
18073;DHT22;9161;47.348;9.648;2023-04-24T01:31:50;9.10;99.90
18073;DHT22;9161;47.348;9.648;2023-04-24T01:36:53;9.20;99.90
18073;DHT22;9161;47.348;9.648;2023-04-24T01:41:56;9.10;99.90
18073;DHT22;9161;47.348;9.648;2023-04-24T01:47:00;9.00;99.90
18073;DHT22;9161;47.348;9.648;2023-04-24T01:52:03;8.90;99.90
18073;DHT22;9161;47.348;9.648;2023-04-24T01:57:06;8.90;99.90
18073;DHT22;9161;47.348;9.648;2023-04-24T02:02:08;8.80;99.90
18073;DHT22;9161;47.348;9.648;2023-04-24T02:07:11;8.70;99.90
18073;DHT22;9161;47.348;9.648;2023-04-24T02:12:14;8.70;99.90
18073;DHT22;9161;47.348;9.648;2023-04-24T02:17:18;8.70;99.90
18073;DHT22;9161;47.348;9.648;2023-04-24T02:22:20;8.70;99.90
18073;DHT22;9161;47.348;9.648;2023-04-24T02:27:23;8.60;99.90
18073;DHT22;9161;47.348;9.648;2023-04-24T02:32:25;8.70;99.90
18073;DHT22;9161;47.348;9.648;2023-04-24T02:37:27;8.70;99.90
18073;DHT22;9161;47.348;9.648;2023-04-24T02:42:31;8.70;99.90
18073;DHT22;9161;47.348;9.648;2023-04-24T02:47:33;8.60;99.90
18073;DHT22;9161;47.348;9.648;2023-04-24T02:52:35;8.60;99.90
18073;DHT22;9161;47.348;9.648;2023-04-24T02:57:39;8.60;99.90
18073;DHT22;9161;47.348;9.648;2023-04-24T03:02:41;8.60;99.90
18073;DHT22;9161;47.348;9.648;2023-04-24T03:07:43;8.60;99.90
18073;DHT22;9161;47.348;9.648;2023-04-24T03:12:47;8.60;99.90
18073;DHT22;9161;47.348;9.648;2023-04-24T03:17:50;8.60;99.90
18073;DHT22;9161;47.348;9.648;2023-04-24T03:22:56;8.50;99.90
18073;DHT22;9161;47.348;9.648;2023-04-24T03:27:59;8.50;99.90
18073;DHT22;9161;47.348;9.648;2023-04-24T03:33:01;8.50;99.90
18073;DHT22;9161;47.348;9.648;2023-04-24T03:38:03;8.50;99.90
18073;DHT22;9161;47.348;9.648;2023-04-24T03:43:07;8.60;99.90
18073;DHT22;9161;47.348;9.648;2023-04-24T03:48:09;8.60;99.90
18073;DHT22;9161;47.348;9.648;2023-04-24T03:53:12;8.50;99.90
18073;DHT22;9161;47.348;9.648;2023-04-24T03:58:15;8.50;99.90
18073;DHT22;9161;47.348;9.648;2023-04-24T04:03:18;8.50;99.90
18073;DHT22;9161;47.348;9.648;2023-04-24T04:08:21;8.50;99.90
18073;DHT22;9161;47.348;9.648;2023-04-24T04:13:24;8.40;99.90
18073;DHT22;9161;47.348;9.648;2023-04-24T04:18:26;8.40;99.90
18073;DHT22;9161;47.348;9.648;2023-04-24T04:23:28;8.50;99.90
18073;DHT22;9161;47.348;9.648;2023-04-24T04:28:33;8.50;99.90
18073;DHT22;9161;47.348;9.648;2023-04-24T04:33:35;8.40;99.90
18073;DHT22;9161;47.348;9.648;2023-04-24T04:38:38;8.40;99.90
18073;DHT22;9161;47.348;9.648;2023-04-24T04:43:43;8.40;99.90
18073;DHT22;9161;47.348;9.648;2023-04-24T04:48:46;8.30;99.90
18073;DHT22;9161;47.348;9.648;2023-04-24T04:53:49;8.30;99.90
18073;DHT22;9161;47.348;9.648;2023-04-24T04:58:53;8.50;99.90
18073;DHT22;9161;47.348;9.648;2023-04-24T05:03:55;8.40;99.90
18073;DHT22;9161;47.348;9.648;2023-04-24T05:08:57;8.30;99.90
18073;DHT22;9161;47.348;9.648;2023-04-24T05:14:01;8.30;99.90
18073;DHT22;9161;47.348;9.648;2023-04-24T05:19:03;8.40;99.90
18073;DHT22;9161;47.348;9.648;2023-04-24T05:24:06;8.30;99.90
18073;DHT22;9161;47.348;9.648;2023-04-24T05:29:09;8.40;99.90
18073;DHT22;9161;47.348;9.648;2023-04-24T05:34:12;8.30;99.90
18073;DHT22;9161;47.348;9.648;2023-04-24T05:39:15;8.40;99.90
18073;DHT22;9161;47.348;9.648;2023-04-24T05:44:18;8.40;99.90
18073;DHT22;9161;47.348;9.648;2023-04-24T05:49:20;8.50;99.90
18073;DHT22;9161;47.348;9.648;2023-04-24T05:54:22;8.60;99.90
18073;DHT22;9161;47.348;9.648;2023-04-24T05:59:26;8.50;99.90
18073;DHT22;9161;47.348;9.648;2023-04-24T06:04:28;8.50;99.90
18073;DHT22;9161;47.348;9.648;2023-04-24T06:09:30;8.60;99.90
18073;DHT22;9161;47.348;9.648;2023-04-24T06:14:34;8.60;99.90
18073;DHT22;9161;47.348;9.648;2023-04-24T06:19:36;8.60;99.90
18073;DHT22;9161;47.348;9.648;2023-04-24T06:24:39;8.60;99.90
18073;DHT22;9161;47.348;9.648;2023-04-24T06:29:43;8.60;99.90
18073;DHT22;9161;47.348;9.648;2023-04-24T06:34:46;8.60;99.90
18073;DHT22;9161;47.348;9.648;2023-04-24T06:39:48;8.70;99.90
18073;DHT22;9161;47.348;9.648;2023-04-24T06:44:52;8.70;99.90
18073;DHT22;9161;47.348;9.648;2023-04-24T06:49:54;8.70;99.90
18073;DHT22;9161;47.348;9.648;2023-04-24T06:55:00;8.70;99.90
18073;DHT22;9161;47.348;9.648;2023-04-24T07:00:05;8.70;99.90
18073;DHT22;9161;47.348;9.648;2023-04-24T07:05:10;8.70;99.90
18073;DHT22;9161;47.348;9.648;2023-04-24T07:10:13;8.90;99.90
18073;DHT22;9161;47.348;9.648;2023-04-24T07:15:17;9.00;99.90
18073;DHT22;9161;47.348;9.648;2023-04-24T07:20:19;9.20;99.90
18073;DHT22;9161;47.348;9.648;2023-04-24T07:25:22;9.40;99.90
18073;DHT22;9161;47.348;9.648;2023-04-24T07:30:26;9.70;99.90
18073;DHT22;9161;47.348;9.648;2023-04-24T07:35:30;9.90;99.90
18073;DHT22;9161;47.348;9.648;2023-04-24T07:40:32;9.80;99.90
18073;DHT22;9161;47.348;9.648;2023-04-24T07:45:36;10.00;99.90
18073;DHT22;9161;47.348;9.648;2023-04-24T07:50:40;10.30;99.90
18073;DHT22;9161;47.348;9.648;2023-04-24T07:55:42;10.70;99.90
18073;DHT22;9161;47.348;9.648;2023-04-24T08:00:45;10.60;99.90
18073;DHT22;9161;47.348;9.648;2023-04-24T08:05:47;10.60;99.90
18073;DHT22;9161;47.348;9.648;2023-04-24T08:10:52;10.30;99.90
18073;DHT22;9161;47.348;9.648;2023-04-24T08:15:56;10.50;99.90
18073;DHT22;9161;47.348;9.648;2023-04-24T08:20:59;12.10;99.90
18073;DHT22;9161;47.348;9.648;2023-04-24T08:26:02;13.50;99.90
18073;DHT22;9161;47.348;9.648;2023-04-24T08:31:06;13.40;99.90
18073;DHT22;9161;47.348;9.648;2023-04-24T08:36:09;12.60;99.90
18073;DHT22;9161;47.348;9.648;2023-04-24T08:41:12;11.50;99.90
18073;DHT22;9161;47.348;9.648;2023-04-24T08:46:18;10.90;99.90
18073;DHT22;9161;47.348;9.648;2023-04-24T08:51:21;10.70;99.90
18073;DHT22;9161;47.348;9.648;2023-04-24T08:56:25;10.50;99.90
18073;DHT22;9161;47.348;9.648;2023-04-24T09:01:29;9.70;99.90
18073;DHT22;9161;47.348;9.648;2023-04-24T09:06:34;9.40;99.90
18073;DHT22;9161;47.348;9.648;2023-04-24T09:11:37;9.40;99.90
18073;DHT22;9161;47.348;9.648;2023-04-24T09:16:41;9.70;99.90
18073;DHT22;9161;47.348;9.648;2023-04-24T09:21:46;10.10;99.90
18073;DHT22;9161;47.348;9.648;2023-04-24T09:26:49;10.40;99.90
18073;DHT22;9161;47.348;9.648;2023-04-24T09:31:59;11.90;99.90
18073;DHT22;9161;47.348;9.648;2023-04-24T09:37:01;13.40;99.90
18073;DHT22;9161;47.348;9.648;2023-04-24T09:42:03;15.00;99.90
18073;DHT22;9161;47.348;9.648;2023-04-24T09:47:09;15.00;99.90
18073;DHT22;9161;47.348;9.648;2023-04-24T09:52:11;14.70;99.90
18073;DHT22;9161;47.348;9.648;2023-04-24T09:57:14;13.60;99.90
18073;DHT22;9161;47.348;9.648;2023-04-24T10:02:19;12.20;99.90
18073;DHT22;9161;47.348;9.648;2023-04-24T10:07:21;11.50;99.90
18073;DHT22;9161;47.348;9.648;2023-04-24T10:12:24;11.40;99.90
18073;DHT22;9161;47.348;9.648;2023-04-24T10:17:28;11.50;99.90
18073;DHT22;9161;47.348;9.648;2023-04-24T10:22:32;11.70;99.90
18073;DHT22;9161;47.348;9.648;2023-04-24T10:27:34;12.00;99.90
18073;DHT22;9161;47.348;9.648;2023-04-24T10:32:39;12.10;99.90
18073;DHT22;9161;47.348;9.648;2023-04-24T10:37:44;11.60;99.90
18073;DHT22;9161;47.348;9.648;2023-04-24T10:42:51;11.50;99.90
18073;DHT22;9161;47.348;9.648;2023-04-24T10:48:01;11.50;99.90
18073;DHT22;9161;47.348;9.648;2023-04-24T10:53:07;11.60;99.90
18073;DHT22;9161;47.348;9.648;2023-04-24T10:58:10;11.80;99.90
18073;DHT22;9161;47.348;9.648;2023-04-24T11:03:27;12.00;99.90
18073;DHT22;9161;47.348;9.648;2023-04-24T11:08:32;12.20;99.90
18073;DHT22;9161;47.348;9.648;2023-04-24T11:14:06;12.20;99.90
18073;DHT22;9161;47.348;9.648;2023-04-24T11:19:18;12.60;99.90
18073;DHT22;9161;47.348;9.648;2023-04-24T11:24:39;13.60;99.90
18073;DHT22;9161;47.348;9.648;2023-04-24T11:29:47;14.90;99.90
18073;DHT22;9161;47.348;9.648;2023-04-24T11:34:53;15.10;99.90
18073;DHT22;9161;47.348;9.648;2023-04-24T11:39:57;14.90;99.90
18073;DHT22;9161;47.348;9.648;2023-04-24T11:45:00;15.10;99.90
18073;DHT22;9161;47.348;9.648;2023-04-24T11:50:06;14.80;99.90
18073;DHT22;9161;47.348;9.648;2023-04-24T11:55:23;14.50;99.90
18073;DHT22;9161;47.348;9.648;2023-04-24T12:00:28;14.50;99.90
18073;DHT22;9161;47.348;9.648;2023-04-24T12:05:37;14.20;99.90
18073;DHT22;9161;47.348;9.648;2023-04-24T12:10:40;16.50;99.90
18073;DHT22;9161;47.348;9.648;2023-04-24T12:15:42;16.20;99.90
18073;DHT22;9161;47.348;9.648;2023-04-24T12:20:46;13.80;99.90
18073;DHT22;9161;47.348;9.648;2023-04-24T12:25:51;14.20;99.90
18073;DHT22;9161;47.348;9.648;2023-04-24T12:30:54;13.80;99.90
18073;DHT22;9161;47.348;9.648;2023-04-24T12:35:58;13.00;99.90
18073;DHT22;9161;47.348;9.648;2023-04-24T12:41:04;12.40;99.90
18073;DHT22;9161;47.348;9.648;2023-04-24T12:46:07;11.10;99.90
18073;DHT22;9161;47.348;9.648;2023-04-24T12:51:11;11.10;99.90
18073;DHT22;9161;47.348;9.648;2023-04-24T12:56:13;13.80;99.90
18073;DHT22;9161;47.348;9.648;2023-04-24T13:01:15;17.20;99.90
18073;DHT22;9161;47.348;9.648;2023-04-24T13:06:18;17.20;99.90
18073;DHT22;9161;47.348;9.648;2023-04-24T13:11:21;15.00;99.90
18073;DHT22;9161;47.348;9.648;2023-04-24T13:16:24;13.00;99.90
18073;DHT22;9161;47.348;9.648;2023-04-24T13:21:29;11.80;99.90
18073;DHT22;9161;47.348;9.648;2023-04-24T13:26:31;11.10;99.90
18073;DHT22;9161;47.348;9.648;2023-04-24T13:31:34;11.10;99.90
18073;DHT22;9161;47.348;9.648;2023-04-24T13:36:38;12.10;99.90
18073;DHT22;9161;47.348;9.648;2023-04-24T13:41:40;12.70;99.90
18073;DHT22;9161;47.348;9.648;2023-04-24T13:46:43;14.90;99.90
18073;DHT22;9161;47.348;9.648;2023-04-24T13:51:47;14.90;99.90
18073;DHT22;9161;47.348;9.648;2023-04-24T13:56:49;13.80;99.90
18073;DHT22;9161;47.348;9.648;2023-04-24T14:01:51;12.50;99.90
18073;DHT22;9161;47.348;9.648;2023-04-24T14:06:55;12.50;99.90
18073;DHT22;9161;47.348;9.648;2023-04-24T14:11:57;12.70;99.90
18073;DHT22;9161;47.348;9.648;2023-04-24T14:16:59;14.10;99.90
18073;DHT22;9161;47.348;9.648;2023-04-24T14:22:02;14.30;99.90
18073;DHT22;9161;47.348;9.648;2023-04-24T14:27:04;14.90;99.90
18073;DHT22;9161;47.348;9.648;2023-04-24T14:32:07;14.60;99.90
18073;DHT22;9161;47.348;9.648;2023-04-24T14:37:11;16.60;99.90
18073;DHT22;9161;47.348;9.648;2023-04-24T14:42:13;16.70;99.90
18073;DHT22;9161;47.348;9.648;2023-04-24T14:47:17;15.60;99.90
18073;DHT22;9161;47.348;9.648;2023-04-24T14:52:23;13.50;99.90
18073;DHT22;9161;47.348;9.648;2023-04-24T14:57:24;12.50;99.90
18073;DHT22;9161;47.348;9.648;2023-04-24T15:02:27;12.60;99.90
18073;DHT22;9161;47.348;9.648;2023-04-24T15:07:31;15.10;99.90
18073;DHT22;9161;47.348;9.648;2023-04-24T15:12:33;16.50;99.90
18073;DHT22;9161;47.348;9.648;2023-04-24T15:17:36;17.70;99.90
18073;DHT22;9161;47.348;9.648;2023-04-24T15:22:39;17.50;99.90
18073;DHT22;9161;47.348;9.648;2023-04-24T15:27:42;17.50;99.90
18073;DHT22;9161;47.348;9.648;2023-04-24T15:32:45;18.80;99.90
18073;DHT22;9161;47.348;9.648;2023-04-24T15:37:49;17.80;99.90
18073;DHT22;9161;47.348;9.648;2023-04-24T15:42:51;15.90;99.90
18073;DHT22;9161;47.348;9.648;2023-04-24T15:47:53;13.90;99.90
18073;DHT22;9161;47.348;9.648;2023-04-24T15:52:56;13.40;99.90
18073;DHT22;9161;47.348;9.648;2023-04-24T15:57:59;13.40;99.90
18073;DHT22;9161;47.348;9.648;2023-04-24T16:03:02;13.30;99.90
18073;DHT22;9161;47.348;9.648;2023-04-24T16:08:10;12.90;99.90
18073;DHT22;9161;47.348;9.648;2023-04-24T16:13:14;12.60;99.90
18073;DHT22;9161;47.348;9.648;2023-04-24T16:18:18;12.40;99.90
18073;DHT22;9161;47.348;9.648;2023-04-24T16:23:21;13.20;99.90
18073;DHT22;9161;47.348;9.648;2023-04-24T16:28:24;14.50;99.90
18073;DHT22;9161;47.348;9.648;2023-04-24T16:33:27;15.40;99.90
18073;DHT22;9161;47.348;9.648;2023-04-24T16:38:32;15.90;99.90
18073;DHT22;9161;47.348;9.648;2023-04-24T16:43:34;16.00;99.90
18073;DHT22;9161;47.348;9.648;2023-04-24T16:48:37;16.00;99.90
18073;DHT22;9161;47.348;9.648;2023-04-24T16:53:40;15.90;99.90
18073;DHT22;9161;47.348;9.648;2023-04-24T16:58:43;15.70;99.90
18073;DHT22;9161;47.348;9.648;2023-04-24T17:03:45;15.40;99.90
18073;DHT22;9161;47.348;9.648;2023-04-24T17:08:50;14.70;99.90
18073;DHT22;9161;47.348;9.648;2023-04-24T17:13:53;13.90;99.90
18073;DHT22;9161;47.348;9.648;2023-04-24T17:18:56;13.40;99.90
18073;DHT22;9161;47.348;9.648;2023-04-24T17:24:01;13.10;99.90
18073;DHT22;9161;47.348;9.648;2023-04-24T17:29:04;12.80;99.90
18073;DHT22;9161;47.348;9.648;2023-04-24T17:34:07;12.50;99.90
18073;DHT22;9161;47.348;9.648;2023-04-24T17:39:12;12.10;99.90
18073;DHT22;9161;47.348;9.648;2023-04-24T17:44:14;11.80;99.90
18073;DHT22;9161;47.348;9.648;2023-04-24T17:49:19;11.60;99.90
18073;DHT22;9161;47.348;9.648;2023-04-24T17:54:25;11.40;99.90
18073;DHT22;9161;47.348;9.648;2023-04-24T17:59:28;11.30;99.90
18073;DHT22;9161;47.348;9.648;2023-04-24T18:04:31;11.20;99.90
18073;DHT22;9161;47.348;9.648;2023-04-24T18:09:35;10.90;99.90
18073;DHT22;9161;47.348;9.648;2023-04-24T18:14:38;10.60;99.90
18073;DHT22;9161;47.348;9.648;2023-04-24T18:19:40;10.00;99.90
18073;DHT22;9161;47.348;9.648;2023-04-24T18:24:45;9.50;99.90
18073;DHT22;9161;47.348;9.648;2023-04-24T18:29:49;9.20;99.90
18073;DHT22;9161;47.348;9.648;2023-04-24T18:34:52;9.00;99.90
18073;DHT22;9161;47.348;9.648;2023-04-24T18:39:57;8.90;99.90
18073;DHT22;9161;47.348;9.648;2023-04-24T18:45:01;8.90;99.90
18073;DHT22;9161;47.348;9.648;2023-04-24T18:50:05;8.90;99.90
18073;DHT22;9161;47.348;9.648;2023-04-24T18:55:09;9.00;99.90
18073;DHT22;9161;47.348;9.648;2023-04-24T19:00:13;9.00;99.90
18073;DHT22;9161;47.348;9.648;2023-04-24T19:05:17;9.00;99.90
18073;DHT22;9161;47.348;9.648;2023-04-24T19:10:22;8.80;99.90
18073;DHT22;9161;47.348;9.648;2023-04-24T19:15:28;8.90;99.90
18073;DHT22;9161;47.348;9.648;2023-04-24T19:20:33;8.90;99.90
18073;DHT22;9161;47.348;9.648;2023-04-24T19:25:38;8.80;99.90
18073;DHT22;9161;47.348;9.648;2023-04-24T19:30:42;8.70;99.90
18073;DHT22;9161;47.348;9.648;2023-04-24T19:35:45;8.70;99.90
18073;DHT22;9161;47.348;9.648;2023-04-24T19:40:50;8.70;99.90
18073;DHT22;9161;47.348;9.648;2023-04-24T19:45:54;8.80;99.90
18073;DHT22;9161;47.348;9.648;2023-04-24T19:50:58;8.80;99.90
18073;DHT22;9161;47.348;9.648;2023-04-24T19:56:02;8.80;99.90
18073;DHT22;9161;47.348;9.648;2023-04-24T20:01:05;8.80;99.90
18073;DHT22;9161;47.348;9.648;2023-04-24T20:06:08;8.90;99.90
18073;DHT22;9161;47.348;9.648;2023-04-24T20:11:13;8.70;99.90
18073;DHT22;9161;47.348;9.648;2023-04-24T20:16:16;8.70;99.90
18073;DHT22;9161;47.348;9.648;2023-04-24T20:21:19;8.60;99.90
18073;DHT22;9161;47.348;9.648;2023-04-24T20:26:22;8.50;99.90
18073;DHT22;9161;47.348;9.648;2023-04-24T20:31:25;8.50;99.90
18073;DHT22;9161;47.348;9.648;2023-04-24T20:36:28;8.50;99.90
18073;DHT22;9161;47.348;9.648;2023-04-24T20:41:33;8.60;99.90
18073;DHT22;9161;47.348;9.648;2023-04-24T20:46:35;8.50;99.90
18073;DHT22;9161;47.348;9.648;2023-04-24T20:51:37;8.50;99.90
18073;DHT22;9161;47.348;9.648;2023-04-24T20:56:41;8.60;99.90
18073;DHT22;9161;47.348;9.648;2023-04-24T21:01:43;8.60;99.90
18073;DHT22;9161;47.348;9.648;2023-04-24T21:06:48;8.70;99.90
18073;DHT22;9161;47.348;9.648;2023-04-24T21:11:51;8.60;99.90
18073;DHT22;9161;47.348;9.648;2023-04-24T21:16:58;8.60;99.90
18073;DHT22;9161;47.348;9.648;2023-04-24T21:22:28;8.70;99.90
18073;DHT22;9161;47.348;9.648;2023-04-24T21:28:16;8.80;99.90
18073;DHT22;9161;47.348;9.648;2023-04-24T21:33:38;8.80;99.90
18073;DHT22;9161;47.348;9.648;2023-04-24T21:38:40;8.60;99.90
18073;DHT22;9161;47.348;9.648;2023-04-24T21:43:44;8.70;99.90
18073;DHT22;9161;47.348;9.648;2023-04-24T21:48:49;8.70;99.90
18073;DHT22;9161;47.348;9.648;2023-04-24T21:53:52;8.70;99.90
18073;DHT22;9161;47.348;9.648;2023-04-24T21:58:56;8.70;99.90
18073;DHT22;9161;47.348;9.648;2023-04-24T22:03:58;8.70;99.90
18073;DHT22;9161;47.348;9.648;2023-04-24T22:09:03;8.70;99.90
18073;DHT22;9161;47.348;9.648;2023-04-24T22:14:08;8.60;99.90
18073;DHT22;9161;47.348;9.648;2023-04-24T22:19:10;8.50;99.90
18073;DHT22;9161;47.348;9.648;2023-04-24T22:24:13;8.50;99.90
18073;DHT22;9161;47.348;9.648;2023-04-24T22:29:17;8.60;99.90
18073;DHT22;9161;47.348;9.648;2023-04-24T22:34:19;8.40;99.90
18073;DHT22;9161;47.348;9.648;2023-04-24T22:39:21;8.40;99.90
18073;DHT22;9161;47.348;9.648;2023-04-24T22:44:25;8.40;99.90
18073;DHT22;9161;47.348;9.648;2023-04-24T22:49:27;8.40;99.90
18073;DHT22;9161;47.348;9.648;2023-04-24T22:54:32;8.30;99.90
18073;DHT22;9161;47.348;9.648;2023-04-24T22:59:35;8.30;99.90
18073;DHT22;9161;47.348;9.648;2023-04-24T23:04:37;8.20;99.90
18073;DHT22;9161;47.348;9.648;2023-04-24T23:09:40;8.10;99.90
18073;DHT22;9161;47.348;9.648;2023-04-24T23:14:43;8.10;99.90
18073;DHT22;9161;47.348;9.648;2023-04-24T23:19:46;8.10;99.90
18073;DHT22;9161;47.348;9.648;2023-04-24T23:24:48;8.10;99.90
18073;DHT22;9161;47.348;9.648;2023-04-24T23:29:53;8.00;99.90
18073;DHT22;9161;47.348;9.648;2023-04-24T23:34:55;8.00;99.90
18073;DHT22;9161;47.348;9.648;2023-04-24T23:39:57;8.00;99.90
18073;DHT22;9161;47.348;9.648;2023-04-24T23:45:00;8.00;99.90
18073;DHT22;9161;47.348;9.648;2023-04-24T23:50:03;8.10;99.90
18073;DHT22;9161;47.348;9.648;2023-04-24T23:55:06;8.00;99.90
